createdAt,value
2022-10-23T00:01:45.048Z,97562.97
2022-10-23T00:04:17.728Z,97561.75
2022-10-23T00:06:46.154Z,97570.70
2022-10-23T00:09:17.959Z,97571.27
2022-10-23T00:11:50.276Z,97569.22
2022-10-23T00:14:21.288Z,97574.20
2022-10-23T00:16:48.870Z,97574.11
2022-10-23T00:19:16.980Z,97564.47
2022-10-23T00:21:44.675Z,97570.92
2022-10-23T00:24:12.466Z,97568.98
2022-10-23T00:26:40.209Z,97577.84
2022-10-23T00:29:09.285Z,97583.72
2022-10-23T00:31:38.308Z,97585.19
2022-10-23T00:34:07.784Z,97579.18
2022-10-23T00:36:35.859Z,97584.17
2022-10-23T00:39:05.140Z,97588.15
2022-10-23T00:41:34.188Z,97589.62
2022-10-23T00:44:12.765Z,97588.95
2022-10-23T00:46:40.450Z,97582.37
2022-10-23T00:49:09.362Z,97583.73
2022-10-23T00:51:42.381Z,97588.38
2022-10-23T00:54:23.385Z,97590.06
2022-10-23T00:56:46.132Z,97581.24
2022-10-23T00:59:17.423Z,97592.58
2022-10-23T01:01:50.404Z,97593.82
2022-10-23T01:04:20.576Z,97591.09
2022-10-23T01:07:17.530Z,97594.26
2022-10-23T01:10:04.554Z,97593.59
2022-10-23T01:13:06.483Z,97591.65
2022-10-23T01:15:55.483Z,97582.14
2022-10-23T01:18:37.278Z,97596.62
2022-10-23T01:21:37.615Z,97595.69
2022-10-23T01:24:45.947Z,97595.47
2022-10-23T01:27:24.192Z,97600.91
2022-10-23T01:30:08.602Z,97606.34
2022-10-23T01:33:04.250Z,97611.71
2022-10-23T01:35:47.464Z,97616.45
2022-10-23T01:38:20.880Z,97613.16
2022-10-23T01:41:01.209Z,97607.28
2022-10-23T01:43:34.321Z,97617.17
2022-10-23T01:46:05.746Z,97613.65
2022-10-23T01:48:37.174Z,97612.98
2022-10-23T01:51:08.791Z,97619.08
2022-10-23T01:53:40.942Z,97620.44
2022-10-23T01:56:13.936Z,97618.42
2022-10-23T01:58:46.781Z,97624.97
2022-10-23T02:01:18.158Z,97631.55
2022-10-23T02:03:49.989Z,97632.69
2022-10-23T02:06:18.348Z,97634.38
2022-10-23T02:08:46.743Z,97641.97
2022-10-23T02:11:17.960Z,97645.20
2022-10-23T02:14:10.754Z,97646.75
2022-10-23T02:16:54.111Z,97651.48
2022-10-23T02:19:31.091Z,97660.13
2022-10-23T02:22:14.634Z,97659.55
2022-10-23T02:24:59.806Z,97667.58
2022-10-23T02:27:45.091Z,97667.00
2022-10-23T02:30:16.850Z,97663.94
2022-10-23T02:32:53.386Z,97679.09
2022-10-23T02:35:23.747Z,97678.56
2022-10-23T02:37:57.596Z,97684.87
2022-10-23T02:40:41.129Z,97689.04
2022-10-23T02:43:23.377Z,97696.04
2022-10-23T02:46:02.707Z,97698.05
2022-10-23T02:48:35.649Z,97701.20
2022-10-23T02:51:25.431Z,97709.34
2022-10-23T02:54:29.071Z,97710.83
2022-10-23T02:57:37.140Z,97723.78
2022-10-23T03:00:11.078Z,97726.25
2022-10-23T03:02:56.624Z,97724.55
2022-10-23T03:05:30.132Z,97726.70
2022-10-23T03:07:57.815Z,97730.04
2022-10-23T03:10:25.552Z,97731.11
2022-10-23T03:12:53.527Z,97729.05
2022-10-23T03:15:21.458Z,97734.89
2022-10-23T03:17:49.885Z,97733.51
2022-10-23T03:20:18.294Z,97735.28
2022-10-23T03:22:46.593Z,97739.77
2022-10-23T03:25:14.382Z,97739.29
2022-10-23T03:27:42.125Z,97747.31
2022-10-23T03:30:11.601Z,97759.19
2022-10-23T03:32:40.548Z,97756.89
2022-10-23T03:35:08.721Z,97767.03
2022-10-23T03:37:36.201Z,97761.45
2022-10-23T03:40:05.155Z,97773.52
2022-10-23T03:42:34.800Z,97775.81
2022-10-23T03:45:02.431Z,97772.08
2022-10-23T03:47:30.244Z,97772.01
2022-10-23T03:49:58.416Z,97782.45
2022-10-23T03:52:25.939Z,97781.20
2022-10-23T03:54:53.519Z,97774.03
2022-10-23T03:57:20.952Z,97781.98
2022-10-23T03:59:48.380Z,97787.00
2022-10-23T04:02:17.310Z,97800.19
2022-10-23T04:04:44.863Z,97803.88
2022-10-23T04:07:12.465Z,97815.28
2022-10-23T04:09:40.116Z,97810.26
2022-10-23T04:12:09.189Z,97812.02
2022-10-23T04:14:37.081Z,97819.92
2022-10-23T04:17:05.013Z,97816.19
2022-10-23T04:19:32.639Z,97822.09
2022-10-23T04:22:00.120Z,97820.96
2022-10-23T04:24:27.807Z,97821.63
2022-10-23T04:26:55.607Z,97820.67
2022-10-23T04:29:25.391Z,97823.52
2022-10-23T04:31:53.012Z,97828.48
2022-10-23T04:34:20.690Z,97828.88
2022-10-23T04:36:48.452Z,97824.09
2022-10-23T04:39:16.129Z,97831.36
2022-10-23T04:41:43.663Z,97834.70
2022-10-23T04:44:11.416Z,97829.91
2022-10-23T04:46:39.276Z,97837.18
2022-10-23T04:49:06.917Z,97841.81
2022-10-23T04:51:53.031Z,97846.67
2022-10-23T04:54:25.126Z,97845.55
2022-10-23T04:56:57.008Z,97849.84
2022-10-23T04:59:24.935Z,97859.09
2022-10-23T05:01:52.740Z,97862.44
2022-10-23T05:04:20.587Z,97868.36
2022-10-23T05:07:06.817Z,97872.26
2022-10-23T05:09:42.447Z,97872.89
2022-10-23T05:12:11.798Z,97874.97
2022-10-23T05:14:39.614Z,97876.95
2022-10-23T05:17:17.484Z,97873.77
2022-10-23T05:19:51.574Z,97883.88
2022-10-23T05:22:21.295Z,97882.80
2022-10-23T05:24:50.948Z,97887.09
2022-10-23T05:27:20.356Z,97895.16
2022-10-23T05:29:47.848Z,97899.52
2022-10-23T05:32:17.620Z,97900.25
2022-10-23T05:34:45.726Z,97900.88
2022-10-23T05:37:16.321Z,97903.28
2022-10-23T05:39:45.279Z,97910.76
2022-10-23T05:42:14.830Z,97910.13
2022-10-23T05:44:42.916Z,97916.51
2022-10-23T05:47:12.257Z,97920.97
2022-10-23T05:49:58.498Z,97927.91
2022-10-23T05:52:36.512Z,97930.48
2022-10-23T05:55:09.471Z,97937.37
2022-10-23T05:57:45.693Z,97936.02
2022-10-23T06:00:15.629Z,97940.64
2022-10-23T06:02:43.072Z,97936.80
2022-10-23T06:05:15.692Z,97937.93
2022-10-23T06:07:48.163Z,97937.37
2022-10-23T06:10:15.751Z,97941.25
2022-10-23T06:12:45.152Z,97938.04
2022-10-23T06:15:14.678Z,97953.65
2022-10-23T06:17:44.446Z,97957.87
2022-10-23T06:20:12.497Z,97959.78
2022-10-23T06:22:40.522Z,97964.41
2022-10-23T06:25:13.334Z,97970.39
2022-10-23T06:27:41.331Z,97977.80
2022-10-23T06:30:10.517Z,97980.66
2022-10-23T06:32:38.061Z,97981.84
2022-10-23T06:35:08.731Z,97987.27
2022-10-23T06:37:36.408Z,97989.22
2022-10-23T06:40:09.634Z,97990.34
2022-10-23T06:42:57.563Z,97996.31
2022-10-23T06:45:25.115Z,98003.88
2022-10-23T06:47:54.437Z,98003.30
2022-10-23T06:50:33.900Z,98005.84
2022-10-23T06:53:04.954Z,98002.02
2022-10-23T06:55:33.621Z,98000.41
2022-10-23T06:58:02.123Z,98007.91
2022-10-23T07:00:29.901Z,98006.81
2022-10-23T07:02:57.350Z,98012.89
2022-10-23T07:05:25.036Z,98017.65
2022-10-23T07:07:52.803Z,98017.23
2022-10-23T07:10:22.771Z,98013.27
2022-10-23T07:12:56.706Z,98011.11
2022-10-23T07:15:39.414Z,98014.53
2022-10-23T07:18:10.683Z,98019.50
2022-10-23T07:20:42.087Z,98016.61
2022-10-23T07:23:11.763Z,98011.02
2022-10-23T07:25:39.693Z,98019.88
2022-10-23T07:28:08.215Z,98012.92
2022-10-23T07:30:36.561Z,98024.51
2022-10-23T07:33:04.428Z,98025.85
2022-10-23T07:35:46.884Z,98021.70
2022-10-23T07:38:17.160Z,98024.02
2022-10-23T07:40:46.683Z,98020.97
2022-10-23T07:43:17.907Z,98025.77
2022-10-23T07:45:48.291Z,98025.53
2022-10-23T07:48:21.327Z,98035.73
2022-10-23T07:50:51.491Z,98036.06
2022-10-23T07:53:24.904Z,98040.55
2022-10-23T07:56:00.697Z,98037.61
2022-10-23T07:58:30.260Z,98038.08
2022-10-23T08:01:23.368Z,98033.30
2022-10-23T08:03:50.948Z,98043.27
2022-10-23T08:06:18.886Z,98043.92
2022-10-23T08:08:47.148Z,98047.10
2022-10-23T08:11:17.787Z,98047.66
2022-10-23T08:13:47.580Z,98050.70
2022-10-23T08:16:15.286Z,98058.91
2022-10-23T08:18:54.825Z,98061.06
2022-10-23T08:21:22.740Z,98076.61
2022-10-23T08:23:59.790Z,98070.56
2022-10-23T08:26:28.918Z,98071.36
2022-10-23T08:28:59.076Z,98069.44
2022-10-23T08:31:27.541Z,98081.48
2022-10-23T08:34:05.698Z,98083.56
2022-10-23T08:36:33.443Z,98084.45
2022-10-23T08:39:01.239Z,98085.25
2022-10-23T08:41:37.046Z,98086.78
2022-10-23T08:44:38.350Z,98092.61
2022-10-23T08:47:17.114Z,98090.30
2022-10-23T08:50:00.255Z,98095.95
2022-10-23T08:52:35.855Z,98103.23
2022-10-23T08:55:23.750Z,98097.41
2022-10-23T08:58:10.120Z,98100.76
2022-10-23T09:00:37.841Z,98101.55
2022-10-23T09:03:05.636Z,98103.41
2022-10-23T09:05:39.025Z,98106.82
2022-10-23T09:08:47.844Z,98104.04
2022-10-23T09:11:26.675Z,98110.03
2022-10-23T09:14:14.638Z,98106.02
2022-10-23T09:17:04.412Z,98111.88
2022-10-23T09:19:32.349Z,98120.09
2022-10-23T09:22:00.756Z,98119.53
2022-10-23T09:24:30.267Z,98121.22
2022-10-23T09:26:58.163Z,98119.60
2022-10-23T09:29:31.353Z,98116.88
2022-10-23T09:32:03.554Z,98123.20
2022-10-23T09:34:34.338Z,98119.93
2022-10-23T09:37:22.325Z,98114.27
2022-10-23T09:40:19.328Z,98116.48
2022-10-23T09:43:01.448Z,98110.82
2022-10-23T09:45:33.755Z,98121.67
2022-10-23T09:48:14.900Z,98123.53
2022-10-23T09:50:48.927Z,98124.89
2022-10-23T09:53:33.252Z,98120.41
2022-10-23T09:56:10.897Z,98116.66
2022-10-23T09:58:43.496Z,98123.52
2022-10-23T10:01:30.144Z,98119.66
2022-10-23T10:03:59.910Z,98118.30
2022-10-23T10:06:31.117Z,98119.36
2022-10-23T10:09:03.797Z,98117.67
2022-10-23T10:11:40.671Z,98117.60
2022-10-23T10:14:45.043Z,98115.50
2022-10-23T10:17:44.482Z,98121.97
2022-10-23T10:20:48.541Z,98118.92
2022-10-23T10:23:47.807Z,98121.08
2022-10-23T10:26:40.947Z,98126.33
2022-10-23T10:29:27.343Z,98123.88
2022-10-23T10:32:24.262Z,98119.80
2022-10-23T10:34:57.580Z,98126.64
2022-10-23T10:37:49.546Z,98122.88
2022-10-23T10:40:34.875Z,98127.26
2022-10-23T10:43:32.227Z,98124.46
2022-10-23T10:46:22.890Z,98125.92
2022-10-23T10:48:58.440Z,98124.00
2022-10-23T10:51:59.616Z,98124.95
2022-10-23T10:54:45.258Z,98123.75
2022-10-23T10:57:45.585Z,98119.79
2022-10-23T11:00:23.007Z,98121.71
2022-10-23T11:03:15.041Z,98119.97
2022-10-23T11:05:50.093Z,98115.52
2022-10-23T11:08:27.813Z,98117.89
2022-10-23T11:11:00.047Z,98123.03
2022-10-23T11:13:40.098Z,98122.46
2022-10-23T11:16:23.071Z,98122.05
2022-10-23T11:19:27.578Z,98124.02
2022-10-23T11:22:09.632Z,98124.84
2022-10-23T11:24:58.319Z,98121.78
2022-10-23T11:27:46.995Z,98121.25
2022-10-23T11:30:56.890Z,98124.58
2022-10-23T11:33:53.969Z,98121.56
2022-10-23T11:36:55.028Z,98123.59
2022-10-23T11:39:29.178Z,98116.30
2022-10-23T11:42:10.080Z,98128.47
2022-10-23T11:44:50.321Z,98126.54
2022-10-23T11:47:40.431Z,98134.92
2022-10-23T11:50:12.691Z,98126.31
2022-10-23T11:53:16.124Z,98129.91
2022-10-23T11:55:38.017Z,98136.47
2022-10-23T11:58:13.971Z,98138.95
2022-10-23T12:00:52.469Z,98139.83
2022-10-23T12:03:30.065Z,98139.37
2022-10-23T12:06:02.463Z,98147.19
2022-10-23T12:08:34.671Z,98144.62
2022-10-23T12:11:02.413Z,98136.28
2022-10-23T12:13:38.342Z,98153.32
2022-10-23T12:16:07.325Z,98153.55
2022-10-23T12:18:52.419Z,98157.63
2022-10-23T12:21:26.527Z,98150.98
2022-10-23T12:24:36.347Z,98152.30
2022-10-23T12:27:18.512Z,98160.17
2022-10-23T12:30:11.784Z,98160.50
2022-10-23T12:33:03.461Z,98161.52
2022-10-23T12:35:55.002Z,98170.81
2022-10-23T12:38:26.722Z,98170.92
2022-10-23T12:41:04.008Z,98163.56
2022-10-23T12:43:36.269Z,98164.58
2022-10-23T12:46:34.494Z,98163.18
2022-10-23T12:49:06.515Z,98162.20
2022-10-23T12:51:36.178Z,98158.31
2022-10-23T12:54:04.740Z,98165.09
2022-10-23T12:56:36.410Z,98159.61
2022-10-23T12:59:09.037Z,98163.19
2022-10-23T13:01:39.412Z,98152.91
2022-10-23T13:04:29.436Z,98154.56
2022-10-23T13:07:00.764Z,98153.49
2022-10-23T13:09:35.814Z,98159.69
2022-10-23T13:12:31.505Z,98157.70
2022-10-23T13:15:10.924Z,98149.81
2022-10-23T13:17:42.913Z,98153.47
2022-10-23T13:20:25.979Z,98153.95
2022-10-23T13:23:19.560Z,98141.59
2022-10-23T13:26:00.403Z,98145.02
2022-10-23T13:28:32.654Z,98150.38
2022-10-23T13:31:18.086Z,98155.56
2022-10-23T13:34:01.630Z,98159.20
2022-10-23T13:36:34.524Z,98156.70
2022-10-23T13:39:10.436Z,98154.55
2022-10-23T13:41:44.761Z,98157.27
2022-10-23T13:44:15.781Z,98161.92
2022-10-23T13:46:43.906Z,98161.12
2022-10-23T13:49:11.846Z,98157.36
2022-10-23T13:51:50.557Z,98168.02
2022-10-23T13:54:25.453Z,98166.21
2022-10-23T13:56:54.780Z,98167.14
2022-10-23T13:59:23.100Z,98173.61
2022-10-23T14:01:51.838Z,98178.06
2022-10-23T14:04:21.131Z,98180.93
2022-10-23T14:06:48.851Z,98171.77
2022-10-23T14:09:18.171Z,98177.01
2022-10-23T14:11:45.510Z,98176.35
2022-10-23T14:14:13.018Z,98163.88
2022-10-23T14:16:40.683Z,98175.20
2022-10-23T14:19:08.680Z,98166.91
2022-10-23T14:21:36.428Z,98162.39
2022-10-23T14:24:04.037Z,98168.55
2022-10-23T14:26:32.309Z,98168.11
2022-10-23T14:29:02.925Z,98159.84
2022-10-23T14:31:29.525Z,98164.08
2022-10-23T14:34:00.141Z,98164.92
2022-10-23T14:36:38.382Z,98155.77
2022-10-23T14:39:00.059Z,98155.11
2022-10-23T14:41:27.779Z,98164.21
2022-10-23T14:43:55.168Z,98162.05
2022-10-23T14:46:24.655Z,98158.53
2022-10-23T14:48:57.440Z,98161.00
2022-10-23T14:51:27.080Z,98159.20
2022-10-23T14:54:01.691Z,98162.59
2022-10-23T14:56:32.923Z,98160.88
2022-10-23T14:59:04.109Z,98167.12
2022-10-23T15:01:35.784Z,98167.08
2022-10-23T15:04:03.857Z,98159.69
2022-10-23T15:06:33.980Z,98161.35
2022-10-23T15:09:02.711Z,98159.95
2022-10-23T15:11:31.154Z,98166.75
2022-10-23T15:13:59.906Z,98159.44
2022-10-23T15:16:28.439Z,98162.78
2022-10-23T15:18:56.290Z,98156.83
2022-10-23T15:21:23.966Z,98152.12
2022-10-23T15:23:52.525Z,98153.34
2022-10-23T15:26:22.736Z,98150.52
2022-10-23T15:28:56.306Z,98151.96
2022-10-23T15:31:40.262Z,98148.87
2022-10-23T15:34:18.162Z,98149.30
2022-10-23T15:36:46.735Z,98149.50
2022-10-23T15:39:18.697Z,98155.23
2022-10-23T15:41:47.133Z,98161.41
2022-10-23T15:44:19.046Z,98153.53
2022-10-23T15:46:48.044Z,98153.01
2022-10-23T15:49:17.785Z,98148.59
2022-10-23T15:51:45.894Z,98152.80
2022-10-23T15:54:18.321Z,98151.33
2022-10-23T15:56:49.072Z,98150.11
2022-10-23T15:59:18.195Z,98146.11
2022-10-23T16:01:45.908Z,98148.94
2022-10-23T16:04:15.590Z,98158.80
2022-10-23T16:06:44.928Z,98159.13
2022-10-23T16:09:13.058Z,98162.09
2022-10-23T16:11:42.417Z,98157.16
2022-10-23T16:14:13.673Z,98158.43
2022-10-23T16:16:41.719Z,98158.59
2022-10-23T16:19:10.671Z,98161.16
2022-10-23T16:21:38.583Z,98167.55
2022-10-23T16:24:08.064Z,98160.99
2022-10-23T16:26:36.624Z,98163.08
2022-10-23T16:29:07.328Z,98168.02
2022-10-23T16:31:35.384Z,98169.47
2022-10-23T16:34:04.910Z,98177.92
2022-10-23T16:36:33.982Z,98184.48
2022-10-23T16:39:08.348Z,98187.59
2022-10-23T16:41:54.150Z,98185.03
2022-10-23T16:44:23.564Z,98186.13
2022-10-23T16:46:56.205Z,98185.09
2022-10-23T16:49:23.611Z,98192.77
2022-10-23T16:51:50.737Z,98192.34
2022-10-23T16:54:18.553Z,98200.17
2022-10-23T16:56:46.843Z,98205.02
2022-10-23T16:59:14.495Z,98216.00
2022-10-23T17:01:42.033Z,98214.06
2022-10-23T17:04:10.060Z,98225.59
2022-10-23T17:06:37.590Z,98224.67
2022-10-23T17:09:05.811Z,98224.82
2022-10-23T17:11:38.380Z,98220.57
2022-10-23T17:14:13.874Z,98221.04
2022-10-23T17:16:51.103Z,98223.95
2022-10-23T17:21:55.490Z,98236.68
2022-10-23T17:24:23.997Z,98231.77
2022-10-23T17:26:51.957Z,98241.92
2022-10-23T17:29:20.572Z,98241.55
2022-10-23T17:31:51.092Z,98246.06
2022-10-23T17:34:22.260Z,98246.23
2022-10-23T17:36:53.281Z,98244.27
2022-10-23T17:39:25.378Z,98245.47
2022-10-23T17:41:53.496Z,98239.70
2022-10-23T17:44:21.705Z,98245.72
2022-10-23T17:46:54.817Z,98241.66
2022-10-23T17:49:24.051Z,98249.03
2022-10-23T17:51:57.268Z,98251.50
2022-10-23T17:54:27.067Z,98259.98
2022-10-23T17:56:55.789Z,98252.22
2022-10-23T17:59:23.938Z,98243.59
2022-10-23T18:01:51.547Z,98247.13
2022-10-23T18:04:20.954Z,98247.13
2022-10-23T18:06:52.269Z,98247.92
2022-10-23T18:09:21.440Z,98240.40
2022-10-23T18:11:49.497Z,98236.14
2022-10-23T18:14:19.976Z,98237.81
2022-10-23T18:16:48.779Z,98241.92
2022-10-23T18:19:18.267Z,98234.95
2022-10-23T18:21:47.030Z,98237.22
2022-10-23T18:24:15.553Z,98235.67
2022-10-23T18:26:43.618Z,98239.61
2022-10-23T18:29:12.679Z,98228.91
2022-10-23T18:31:41.484Z,98232.77
2022-10-23T18:34:20.537Z,98235.31
2022-10-23T18:36:50.494Z,98233.79
2022-10-23T18:39:22.789Z,98237.64
2022-10-23T18:41:55.101Z,98234.19
2022-10-23T18:44:26.854Z,98231.83
2022-10-23T18:46:56.552Z,98227.81
2022-10-23T18:49:24.300Z,98228.44
2022-10-23T18:51:52.246Z,98234.44
2022-10-23T18:54:21.277Z,98233.13
2022-10-23T18:56:49.697Z,98236.14
2022-10-23T18:59:20.050Z,98234.34
2022-10-23T19:01:48.362Z,98243.53
2022-10-23T19:04:18.067Z,98234.06
2022-10-23T19:06:47.254Z,98231.63
2022-10-23T19:09:15.748Z,98237.77
2022-10-23T19:11:45.210Z,98231.02
2022-10-23T19:14:12.884Z,98229.58
2022-10-23T19:17:09.899Z,98228.88
2022-10-23T19:19:51.630Z,98221.34
2022-10-23T19:22:19.153Z,98221.38
2022-10-23T19:24:55.848Z,98223.17
2022-10-23T19:27:25.732Z,98223.30
2022-10-23T19:29:55.140Z,98219.91
2022-10-23T19:32:22.499Z,98214.38
2022-10-23T19:34:49.914Z,98215.35
2022-10-23T19:37:17.216Z,98221.12
2022-10-23T19:39:45.035Z,98226.60
2022-10-23T19:42:12.440Z,98243.70
2022-10-23T19:44:40.088Z,98234.89
2022-10-23T19:47:07.447Z,98237.64
2022-10-23T19:49:35.024Z,98237.98
2022-10-23T19:52:02.754Z,98241.48
2022-10-23T19:54:30.437Z,98238.02
2022-10-23T19:56:58.163Z,98232.16
2022-10-23T19:59:25.976Z,98233.62
2022-10-23T20:01:53.753Z,98234.80
2022-10-23T20:04:21.457Z,98227.65
2022-10-23T20:06:49.217Z,98229.07
2022-10-23T20:09:16.862Z,98222.16
2022-10-23T20:11:44.744Z,98229.72
2022-10-23T20:14:13.022Z,98235.92
2022-10-23T20:16:44.362Z,98244.55
2022-10-23T20:21:46.871Z,98235.44
2022-10-23T20:24:17.726Z,98238.38
2022-10-23T20:26:50.255Z,98232.77
2022-10-23T20:29:18.561Z,98229.52
2022-10-23T20:31:46.282Z,98224.53
2022-10-23T20:34:13.783Z,98220.44
2022-10-23T20:36:46.669Z,98218.26
2022-10-23T20:39:18.471Z,98213.12
2022-10-23T20:41:47.238Z,98202.55
2022-10-23T20:46:44.885Z,98214.72
2022-10-23T20:49:13.678Z,98204.50
2022-10-23T20:51:42.416Z,98202.48
2022-10-23T20:54:10.751Z,98201.23
2022-10-23T20:56:39.391Z,98198.91
2022-10-23T20:59:15.867Z,98190.44
2022-10-23T21:01:50.700Z,98186.02
2022-10-23T21:04:22.499Z,98182.34
2022-10-23T21:07:08.944Z,98183.78
2022-10-23T21:09:22.630Z,98184.61
2022-10-23T21:11:50.790Z,98199.25
2022-10-23T21:14:18.273Z,98206.06
2022-10-23T21:16:46.338Z,98206.88
2022-10-23T21:19:15.509Z,98213.64
2022-10-23T21:21:44.145Z,98204.73
2022-10-23T21:24:15.016Z,98198.78
2022-10-23T21:26:43.500Z,98202.01
2022-10-23T21:29:20.522Z,98204.95
2022-10-23T21:31:41.792Z,98204.70
2022-10-23T21:36:48.561Z,98204.86
2022-10-23T21:39:06.457Z,98203.42
2022-10-23T21:41:34.718Z,98199.89
2022-10-23T21:44:05.455Z,98197.44
2022-10-23T21:46:35.407Z,98195.29
2022-10-23T21:49:03.021Z,98198.52
2022-10-23T21:51:37.902Z,98197.19
2022-10-23T21:54:09.675Z,98208.76
2022-10-23T21:56:44.849Z,98207.94
2022-10-23T21:59:16.703Z,98216.73
2022-10-23T22:01:46.239Z,98220.91
2022-10-23T22:04:18.128Z,98229.38
2022-10-23T22:06:48.126Z,98231.13
2022-10-23T22:09:18.976Z,98229.80
2022-10-23T22:11:49.658Z,98224.45
2022-10-23T22:14:17.451Z,98215.84
2022-10-23T22:16:45.463Z,98214.53
2022-10-23T22:19:16.680Z,98218.05
2022-10-23T22:21:44.422Z,98225.42
2022-10-23T22:24:12.067Z,98226.30
2022-10-23T22:26:47.236Z,98226.94
2022-10-23T22:29:19.092Z,98219.98
2022-10-23T22:31:49.923Z,98221.66
2022-10-23T22:34:48.270Z,98223.64
2022-10-23T22:36:56.785Z,98223.70
2022-10-23T22:39:24.246Z,98217.03
2022-10-23T22:41:51.930Z,98218.95
2022-10-23T22:44:19.611Z,98215.75
2022-10-23T22:46:47.487Z,98218.95
2022-10-23T22:49:15.179Z,98215.69
2022-10-23T22:51:42.614Z,98214.59
2022-10-23T22:54:10.524Z,98222.36
2022-10-23T22:56:38.129Z,98216.41
2022-10-23T22:59:05.614Z,98221.73
2022-10-23T23:01:38.442Z,98226.55
2022-10-23T23:04:19.662Z,98222.19
2022-10-23T23:06:35.752Z,98227.56
2022-10-23T23:09:04.230Z,98221.34
2022-10-23T23:11:37.087Z,98216.73
2022-10-23T23:14:02.610Z,98212.12
2022-10-23T23:16:31.974Z,98214.80
2022-10-23T23:19:02.669Z,98217.20
2022-10-23T23:21:30.986Z,98217.77
2022-10-23T23:23:58.735Z,98226.17
2022-10-23T23:26:26.573Z,98224.59
2022-10-23T23:28:55.015Z,98221.94
2022-10-23T23:31:26.117Z,98224.64
2022-10-23T23:33:54.523Z,98217.37
2022-10-23T23:36:27.822Z,98224.11
2022-10-23T23:38:57.191Z,98221.73
2022-10-23T23:41:26.091Z,98215.55
2022-10-23T23:43:56.873Z,98222.91
2022-10-23T23:46:25.489Z,98224.02
2022-10-23T23:48:53.051Z,98218.13
2022-10-23T23:51:24.375Z,98216.30
2022-10-23T23:53:52.772Z,98214.48
2022-10-23T23:56:21.041Z,98209.42
2022-10-23T23:58:48.553Z,98215.67
